createdAt,value
2018-04-23T00:00:21.958Z,49.60
2018-04-23T00:02:49.708Z,49.80
2018-04-23T00:05:17.501Z,50.20
2018-04-23T00:07:45.251Z,50.50
2018-04-23T00:10:13.773Z,50.70
2018-04-23T00:12:42.348Z,50.10
2018-04-23T00:15:10.875Z,50.30
2018-04-23T00:17:38.616Z,50.40
2018-04-23T00:20:06.432Z,50.10
2018-04-23T00:22:34.220Z,50.20
2018-04-23T00:25:01.973Z,50.50
2018-04-23T00:27:30.557Z,50.20
2018-04-23T00:29:59.073Z,50.00
2018-04-23T00:32:26.840Z,50.00
2018-04-23T00:34:54.651Z,49.70
2018-04-23T00:37:23.171Z,50.10
2018-04-23T00:39:50.976Z,50.10
2018-04-23T00:42:18.776Z,50.60
2018-04-23T00:44:46.528Z,50.10
2018-04-23T00:47:15.036Z,50.20
2018-04-23T00:49:42.863Z,50.20
2018-04-23T00:52:11.373Z,50.40
2018-04-23T00:54:39.115Z,50.40
2018-04-23T00:57:07.698Z,50.30
2018-04-23T00:59:35.458Z,50.30
2018-04-23T01:02:03.964Z,50.70
2018-04-23T01:04:31.778Z,50.80
2018-04-23T01:06:59.525Z,51.10
2018-04-23T01:09:27.293Z,50.90
2018-04-23T01:11:55.124Z,50.30
2018-04-23T01:14:22.880Z,51.00
2018-04-23T01:16:50.623Z,50.80
2018-04-23T01:19:18.460Z,50.80
2018-04-23T01:21:46.980Z,50.40
2018-04-23T01:24:14.733Z,50.40
2018-04-23T01:26:42.572Z,49.30
2018-04-23T01:29:11.096Z,49.30
2018-04-23T01:31:38.867Z,49.30
2018-04-23T01:34:06.665Z,49.10
2018-04-23T01:36:35.188Z,73.80
2018-04-23T01:39:02.937Z,76.00
2018-04-23T01:41:30.737Z,99.90
2018-04-23T01:43:58.510Z,99.90
2018-04-23T01:46:26.247Z,99.90
2018-04-23T01:48:54.044Z,99.90
2018-04-23T01:51:21.781Z,99.90
2018-04-23T01:53:49.530Z,99.90
2018-04-23T01:56:17.328Z,99.90
2018-04-23T01:58:45.068Z,99.90
2018-04-23T02:01:12.829Z,99.90
2018-04-23T02:03:40.628Z,99.90
2018-04-23T02:06:09.136Z,99.90
2018-04-23T02:08:36.875Z,99.90
2018-04-23T02:11:05.435Z,99.90
2018-04-23T02:13:33.206Z,99.90
2018-04-23T02:16:01.000Z,99.90
2018-04-23T02:18:28.827Z,99.90
2018-04-23T02:20:56.578Z,99.90
2018-04-23T02:23:24.322Z,99.90
2018-04-23T02:25:52.125Z,99.90
2018-04-23T02:28:20.663Z,95.00
2018-04-23T02:30:48.405Z,95.00
2018-04-23T02:33:16.217Z,97.80
2018-04-23T02:35:43.968Z,99.90
2018-04-23T02:38:11.751Z,99.90
2018-04-23T02:40:40.332Z,99.90
2018-04-23T02:43:08.838Z,99.90
2018-04-23T02:45:36.585Z,99.90
2018-04-23T02:48:05.149Z,96.00
2018-04-23T02:53:14.886Z,95.00
2018-04-23T02:55:42.653Z,93.60
2018-04-23T02:58:10.396Z,93.10
2018-04-23T03:00:38.219Z,95.90
2018-04-23T03:03:05.962Z,97.40
2018-04-23T03:05:33.729Z,95.60
2018-04-23T03:08:02.297Z,99.40
2018-04-23T03:10:30.819Z,99.90
2018-04-23T03:12:58.562Z,99.90
2018-04-23T03:15:26.366Z,99.90
2018-04-23T03:17:54.112Z,99.90
2018-04-23T03:20:21.862Z,99.90
2018-04-23T03:22:49.675Z,99.90
2018-04-23T03:25:17.462Z,99.90
2018-04-23T03:27:45.980Z,99.90
2018-04-23T03:30:13.792Z,99.90
2018-04-23T03:32:41.570Z,99.50
2018-04-23T03:35:10.088Z,99.90
2018-04-23T03:37:37.887Z,99.90
2018-04-23T03:40:05.763Z,99.90
2018-04-23T03:42:34.299Z,99.90
2018-04-23T03:45:02.867Z,99.90
2018-04-23T03:47:30.640Z,99.90
2018-04-23T03:49:58.376Z,98.90
2018-04-23T03:52:26.209Z,98.40
2018-04-23T03:54:54.719Z,96.70
2018-04-23T03:57:22.465Z,96.70
2018-04-23T03:59:51.030Z,96.30
2018-04-23T04:02:19.536Z,96.60
2018-04-23T04:04:47.280Z,96.50
2018-04-23T04:07:15.883Z,94.40
2018-04-23T04:09:43.634Z,94.30
2018-04-23T04:12:23.516Z,95.40
2018-04-23T04:15:03.000Z,99.90
2018-04-23T04:30:58.171Z,99.90
2018-04-23T04:33:26.723Z,99.90
2018-04-23T04:35:54.506Z,99.90
2018-04-23T04:38:22.330Z,99.90
2018-04-23T04:40:50.100Z,99.90
2018-04-23T04:43:17.860Z,99.90
2018-04-23T04:45:45.669Z,99.90
2018-04-23T04:48:14.237Z,99.90
2018-04-23T04:50:42.018Z,99.90
2018-04-23T04:53:10.598Z,99.90
2018-04-23T04:55:39.138Z,99.90
2018-04-23T04:58:06.924Z,99.90
2018-04-23T05:00:34.748Z,99.90
2018-04-23T05:03:02.525Z,99.90
2018-04-23T05:05:30.317Z,99.90
2018-04-23T05:07:58.164Z,99.90
2018-04-23T05:10:25.929Z,99.90
2018-04-23T05:12:53.682Z,99.90
2018-04-23T05:15:21.477Z,99.90
2018-04-23T05:17:49.991Z,99.90
2018-04-23T05:20:17.738Z,99.90
2018-04-23T05:22:46.303Z,99.90
2018-04-23T05:25:14.811Z,99.90
2018-04-23T05:27:42.576Z,99.90
2018-04-23T05:30:10.384Z,99.90
2018-04-23T05:32:38.135Z,99.90
2018-04-23T05:35:05.897Z,99.90
2018-04-23T05:37:33.720Z,99.90
2018-04-23T05:40:01.501Z,99.90
2018-04-23T05:42:29.256Z,99.90
2018-04-23T05:44:57.048Z,99.90
2018-04-23T05:47:24.792Z,99.90
2018-04-23T05:49:52.536Z,99.90
2018-04-23T05:52:20.325Z,99.90
2018-04-23T05:54:48.077Z,99.90
2018-04-23T05:57:15.815Z,99.90
2018-04-23T05:59:43.610Z,99.90
2018-04-23T06:02:11.387Z,99.90
2018-04-23T06:04:39.121Z,99.90
2018-04-23T06:07:06.935Z,97.60
2018-04-23T06:09:35.437Z,98.90
2018-04-23T06:12:03.190Z,98.80
2018-04-23T06:14:31.795Z,99.90
2018-04-23T06:16:59.535Z,99.90
2018-04-23T06:19:28.033Z,99.90
2018-04-23T06:21:55.828Z,99.90
2018-04-23T06:24:23.564Z,99.90
2018-04-23T06:26:51.296Z,99.90
2018-04-23T06:29:19.090Z,99.90
2018-04-23T06:31:46.827Z,99.90
2018-04-23T06:34:14.576Z,99.90
2018-04-23T06:36:43.150Z,99.90
2018-04-23T06:39:11.648Z,99.90
2018-04-23T06:41:39.375Z,99.90
2018-04-23T06:44:07.184Z,99.90
2018-04-23T06:46:35.546Z,99.90
2018-04-23T06:49:03.285Z,99.90
2018-04-23T06:51:31.843Z,99.90
2018-04-23T06:53:59.579Z,99.90
2018-04-23T06:56:27.322Z,99.90
2018-04-23T06:58:55.114Z,99.90
2018-04-23T07:01:22.841Z,99.90
2018-04-23T07:03:50.590Z,98.70
2018-04-23T07:06:19.148Z,97.70
2018-04-23T07:08:46.876Z,97.70
2018-04-23T07:11:14.603Z,96.60
2018-04-23T07:13:42.395Z,95.80
2018-04-23T07:16:10.140Z,95.10
2018-04-23T07:18:37.992Z,92.20
2018-04-23T07:21:05.822Z,85.20
2018-04-23T07:23:33.559Z,74.90
2018-04-23T07:26:02.725Z,65.20
2018-04-23T07:28:30.531Z,60.20
2018-04-23T07:30:58.260Z,56.90
2018-04-23T07:33:26.780Z,35.90
2018-04-23T07:35:54.575Z,35.70
2018-04-23T07:38:22.304Z,39.60
2018-04-23T07:40:50.109Z,41.30
2018-04-23T07:43:17.946Z,39.00
2018-04-23T07:45:46.440Z,43.80
2018-04-23T07:48:14.172Z,43.80
2018-04-23T07:50:41.957Z,45.00
2018-04-23T07:53:09.708Z,47.50
2018-04-23T07:55:38.481Z,38.30
2018-04-23T07:58:06.264Z,38.30
2018-04-23T08:00:34.768Z,29.30
2018-04-23T08:03:02.532Z,29.20
2018-04-23T08:05:30.316Z,27.80
2018-04-23T08:07:58.060Z,24.60
2018-04-23T08:10:25.800Z,22.80
2018-04-23T08:12:53.587Z,21.80
2018-04-23T08:15:21.317Z,24.30
2018-04-23T08:17:49.078Z,22.30
2018-04-23T08:20:17.641Z,21.20
2018-04-23T08:22:46.188Z,19.80
2018-04-23T08:25:13.948Z,19.80
2018-04-23T08:27:41.757Z,20.70
2018-04-23T08:30:09.544Z,20.00
2018-04-23T08:32:37.312Z,19.40
2018-04-23T08:35:05.103Z,19.10
2018-04-23T08:37:32.965Z,19.00
2018-04-23T08:40:00.708Z,17.10
2018-04-23T08:42:28.499Z,17.40
2018-04-23T08:44:56.245Z,17.70
2018-04-23T08:47:24.760Z,18.00
2018-04-23T08:49:53.309Z,17.20
2018-04-23T08:52:21.083Z,17.20
2018-04-23T08:54:48.850Z,18.00
2018-04-23T08:57:16.643Z,17.80
2018-04-23T08:59:45.179Z,17.60
2018-04-23T09:02:12.915Z,17.60
2018-04-23T09:04:40.766Z,18.70
2018-04-23T09:07:08.492Z,18.50
2018-04-23T09:09:37.024Z,20.50
2018-04-23T09:12:04.818Z,20.20
2018-04-23T09:14:32.578Z,18.90
2018-04-23T09:17:00.328Z,18.80
2018-04-23T09:19:28.123Z,20.20
2018-04-23T09:21:56.675Z,23.20
2018-04-23T09:24:24.432Z,23.30
2018-04-23T09:26:52.232Z,24.60
2018-04-23T09:29:20.757Z,23.20
2018-04-23T09:31:48.509Z,23.20
2018-04-23T09:34:16.351Z,25.10
2018-04-23T09:36:44.129Z,26.60
2018-04-23T09:39:11.879Z,28.40
2018-04-23T09:41:39.689Z,27.00
2018-04-23T09:44:07.429Z,27.00
2018-04-23T09:46:35.181Z,27.70
2018-04-23T09:49:03.005Z,28.20
2018-04-23T09:51:31.520Z,27.20
2018-04-23T09:53:59.256Z,27.20
2018-04-23T09:56:27.817Z,27.90
2018-04-23T09:58:55.559Z,27.90
2018-04-23T10:01:23.335Z,28.70
2018-04-23T10:03:51.129Z,28.10
2018-04-23T10:06:18.871Z,28.00
2018-04-23T10:08:47.369Z,29.70
2018-04-23T10:11:15.920Z,30.00
2018-04-23T10:13:43.696Z,29.90
2018-04-23T10:16:12.191Z,28.40
2018-04-23T10:18:40.777Z,28.00
2018-04-23T10:21:08.521Z,27.90
2018-04-23T10:23:37.020Z,28.00
2018-04-23T10:26:04.827Z,28.00
2018-04-23T10:28:32.571Z,28.20
2018-04-23T10:31:00.370Z,28.90
2018-04-23T10:33:28.171Z,31.50
2018-04-23T10:35:55.904Z,30.80
2018-04-23T10:38:23.657Z,29.60
2018-04-23T10:40:51.454Z,29.60
2018-04-23T10:43:19.184Z,28.40
2018-04-23T10:45:46.956Z,31.10
2018-04-23T10:48:15.521Z,27.80
2018-04-23T10:50:43.259Z,27.80
2018-04-23T10:53:11.004Z,29.10
2018-04-23T10:55:38.841Z,28.70
2018-04-23T10:58:06.583Z,29.30
2018-04-23T11:00:35.091Z,29.20
2018-04-23T11:03:02.886Z,29.10
2018-04-23T11:05:30.638Z,28.20
2018-04-23T11:07:58.397Z,27.70
2018-04-23T11:10:26.187Z,27.70
2018-04-23T11:12:54.701Z,26.50
2018-04-23T11:15:23.211Z,26.90
2018-04-23T11:17:51.013Z,26.90
2018-04-23T11:20:18.763Z,28.30
2018-04-23T11:22:46.617Z,25.70
2018-04-23T11:25:14.428Z,26.30
2018-04-23T11:27:42.938Z,27.40
2018-04-23T11:30:10.702Z,27.30
2018-04-23T11:32:38.510Z,27.90
2018-04-23T11:35:06.257Z,26.30
2018-04-23T11:37:33.993Z,26.60
2018-04-23T11:40:01.775Z,28.00
2018-04-23T11:42:40.844Z,26.80
2018-04-23T11:45:09.436Z,27.20
2018-04-23T11:47:37.188Z,27.20
2018-04-23T11:50:05.691Z,25.50
2018-04-23T11:52:33.480Z,25.30
2018-04-23T11:55:01.217Z,25.50
2018-04-23T11:57:28.951Z,25.30
2018-04-23T11:59:57.505Z,25.00
2018-04-23T12:02:25.289Z,25.00
2018-04-23T12:04:53.799Z,25.70
2018-04-23T12:07:21.602Z,25.60
2018-04-23T12:09:49.337Z,26.50
2018-04-23T12:12:17.075Z,25.40
2018-04-23T12:14:44.873Z,26.70
2018-04-23T12:17:12.626Z,27.30
2018-04-23T12:19:40.360Z,26.80
2018-04-23T12:22:08.164Z,26.60
2018-04-23T12:24:35.901Z,26.80
2018-04-23T12:27:03.647Z,26.40
2018-04-23T12:29:31.436Z,25.80
2018-04-23T12:31:59.184Z,25.50
2018-04-23T12:34:26.947Z,26.60
2018-04-23T12:36:54.751Z,26.00
2018-04-23T12:39:22.484Z,27.10
2018-04-23T12:41:50.223Z,25.10
2018-04-23T12:44:18.016Z,26.30
2018-04-23T12:46:45.803Z,24.70
2018-04-23T12:49:13.541Z,24.30
2018-04-23T12:51:41.347Z,24.80
2018-04-23T12:54:09.871Z,24.80
2018-04-23T12:56:37.661Z,25.10
2018-04-23T12:59:05.476Z,24.90
2018-04-23T13:01:33.220Z,24.00
2018-04-23T13:04:00.960Z,24.90
2018-04-23T13:06:29.514Z,25.70
2018-04-23T13:08:58.041Z,25.10
2018-04-23T13:11:26.745Z,24.00
2018-04-23T13:13:54.538Z,24.00
2018-04-23T13:16:22.292Z,24.80
2018-04-23T13:18:50.034Z,24.90
2018-04-23T13:21:17.827Z,25.10
2018-04-23T13:23:45.578Z,28.20
2018-04-23T13:26:13.324Z,33.30
2018-04-23T13:28:41.115Z,44.30
2018-04-23T13:31:08.857Z,82.70
2018-04-23T13:33:36.637Z,99.90
2018-04-23T13:36:04.537Z,99.90
2018-04-23T13:38:33.181Z,99.90
2018-04-23T13:41:02.805Z,99.90
2018-04-23T13:43:31.231Z,99.90
2018-04-23T13:45:59.012Z,99.90
2018-04-23T13:48:26.812Z,99.90
2018-04-23T13:50:54.704Z,99.90
2018-04-23T13:53:22.451Z,99.90
2018-04-23T13:55:50.972Z,99.90
2018-04-23T13:58:18.874Z,99.90
2018-04-23T14:00:48.066Z,99.90
2018-04-23T14:03:15.863Z,99.90
2018-04-23T14:05:43.713Z,99.90
2018-04-23T14:08:12.281Z,99.90
2018-04-23T14:10:40.851Z,99.90
2018-04-23T14:13:08.715Z,99.90
2018-04-23T14:15:36.477Z,99.90
2018-04-23T14:18:04.258Z,99.90
2018-04-23T14:20:32.852Z,99.90
2018-04-23T14:23:01.379Z,99.90
2018-04-23T14:25:29.929Z,99.90
2018-04-23T14:27:57.747Z,99.90
2018-04-23T14:30:25.498Z,99.90
2018-04-23T14:32:53.272Z,99.90
2018-04-23T14:35:21.103Z,99.90
2018-04-23T14:37:48.837Z,99.90
2018-04-23T14:40:16.574Z,99.90
2018-04-23T14:42:44.364Z,99.90
2018-04-23T14:45:12.098Z,99.90
2018-04-23T14:47:39.847Z,99.90
2018-04-23T14:50:07.640Z,99.90
2018-04-23T14:52:36.136Z,99.90
2018-04-23T14:55:03.888Z,99.90
2018-04-23T14:57:31.675Z,99.90
2018-04-23T14:59:59.411Z,99.90
2018-04-23T15:02:27.170Z,99.90
2018-04-23T15:04:54.987Z,99.90
2018-04-23T15:07:22.731Z,99.90
2018-04-23T15:09:50.484Z,99.90
2018-04-23T15:12:18.277Z,99.90
2018-04-23T15:14:46.030Z,99.90
2018-04-23T15:17:13.771Z,99.90
2018-04-23T15:19:41.568Z,99.90
2018-04-23T15:22:09.316Z,99.90
2018-04-23T15:24:37.082Z,99.90
2018-04-23T15:27:04.880Z,99.90
2018-04-23T15:29:33.420Z,99.90
2018-04-23T15:32:01.147Z,99.90
2018-04-23T15:34:28.941Z,99.90
2018-04-23T15:36:56.675Z,99.90
2018-04-23T15:39:24.416Z,99.90
2018-04-23T15:41:52.212Z,99.90
2018-04-23T15:44:19.944Z,99.90
2018-04-23T15:46:47.680Z,99.90
2018-04-23T15:49:16.235Z,99.90
2018-04-23T15:51:43.992Z,99.90
2018-04-23T15:54:11.733Z,99.90
2018-04-23T15:56:39.525Z,99.90
2018-04-23T15:59:07.277Z,99.90
2018-04-23T16:01:35.020Z,99.90
2018-04-23T16:04:02.831Z,99.90
2018-04-23T16:06:31.331Z,99.90
2018-04-23T16:08:59.088Z,99.90
2018-04-23T16:11:26.892Z,99.90
2018-04-23T16:13:54.668Z,99.90
2018-04-23T16:16:22.404Z,99.90
2018-04-23T16:18:50.241Z,99.90
2018-04-23T16:21:18.050Z,99.90
2018-04-23T16:23:45.791Z,99.90
2018-04-23T16:26:13.584Z,99.90
2018-04-23T16:28:41.328Z,99.90
2018-04-23T16:31:09.071Z,99.90
2018-04-23T16:33:43.533Z,99.90
2018-04-23T16:36:12.068Z,99.90
2018-04-23T16:38:39.810Z,99.90
2018-04-23T16:41:07.596Z,99.90
2018-04-23T16:43:35.346Z,99.90
2018-04-23T16:46:03.087Z,99.90
2018-04-23T16:48:31.655Z,99.90
2018-04-23T16:51:00.176Z,99.90
2018-04-23T16:53:27.918Z,99.90
2018-04-23T16:55:55.707Z,99.90
2018-04-23T16:58:23.435Z,99.90
2018-04-23T17:00:51.931Z,99.90
2018-04-23T17:03:19.730Z,99.90
2018-04-23T17:05:48.245Z,99.90
2018-04-23T17:08:16.763Z,99.90
2018-04-23T17:10:44.556Z,99.90
2018-04-23T17:13:12.288Z,99.90
2018-04-23T17:15:40.044Z,99.90
2018-04-23T17:18:07.863Z,99.90
2018-04-23T17:20:35.598Z,99.90
2018-04-23T17:23:03.360Z,99.90
2018-04-23T17:25:31.174Z,99.90
2018-04-23T17:27:58.914Z,99.90
2018-04-23T17:30:27.431Z,99.90
2018-04-23T17:32:55.223Z,99.90
2018-04-23T17:35:22.957Z,99.90
2018-04-23T17:37:50.692Z,99.90
2018-04-23T17:40:19.259Z,99.90
2018-04-23T17:42:47.000Z,99.90
2018-04-23T17:45:14.736Z,99.90
2018-04-23T17:47:42.542Z,99.90
2018-04-23T17:50:10.292Z,99.90
2018-04-23T17:52:38.024Z,99.90
2018-04-23T17:55:05.872Z,99.90
2018-04-23T17:57:33.601Z,99.90
2018-04-23T18:00:02.106Z,99.90
2018-04-23T18:02:29.916Z,99.90
2018-04-23T18:04:57.651Z,99.90
2018-04-23T18:07:25.387Z,99.90
2018-04-23T18:09:53.171Z,99.90
2018-04-23T18:12:20.903Z,99.90
2018-04-23T18:14:48.649Z,99.90
2018-04-23T18:17:17.210Z,99.90
2018-04-23T18:19:44.943Z,99.90
2018-04-23T18:22:12.698Z,99.90
2018-04-23T18:24:40.545Z,99.90
2018-04-23T18:27:08.759Z,99.90
2018-04-23T18:29:36.672Z,99.90
2018-04-23T18:32:04.570Z,99.90
2018-04-23T18:34:32.366Z,99.90
2018-04-23T18:37:00.115Z,99.90
2018-04-23T18:39:28.673Z,99.90
2018-04-23T18:41:56.408Z,99.90
2018-04-23T18:44:24.145Z,99.90
2018-04-23T18:46:52.705Z,99.90
2018-04-23T18:49:20.456Z,99.90
2018-04-23T18:51:48.191Z,99.90
2018-04-23T18:54:15.985Z,99.90
2018-04-23T18:56:44.487Z,99.90
2018-04-23T18:59:12.236Z,99.90
2018-04-23T19:01:40.031Z,99.90
2018-04-23T19:04:07.768Z,99.90
2018-04-23T19:06:36.278Z,99.90
2018-04-23T19:09:04.108Z,99.90
2018-04-23T19:11:31.852Z,99.90
2018-04-23T19:13:59.593Z,99.90
2018-04-23T19:16:27.395Z,99.90
2018-04-23T19:18:55.125Z,99.90
2018-04-23T19:21:22.874Z,99.90
2018-04-23T19:23:50.667Z,99.90
2018-04-23T19:26:18.401Z,99.90
2018-04-23T19:28:46.133Z,99.90
2018-04-23T19:31:13.946Z,99.90
2018-04-23T19:33:41.700Z,99.90
2018-04-23T19:36:09.443Z,99.90
2018-04-23T19:38:37.340Z,99.90
2018-04-23T19:41:05.076Z,99.90
2018-04-23T19:43:32.816Z,99.90
2018-04-23T19:46:00.611Z,99.90
2018-04-23T19:48:28.387Z,99.90
2018-04-23T19:50:56.139Z,99.90
2018-04-23T19:53:23.949Z,99.90
2018-04-23T19:55:51.705Z,99.90
2018-04-23T19:58:20.213Z,99.90
2018-04-23T20:00:48.071Z,99.90
2018-04-23T20:03:15.795Z,99.90
2018-04-23T20:05:44.307Z,99.90
2018-04-23T20:08:12.097Z,99.90
2018-04-23T20:10:39.831Z,99.90
2018-04-23T20:13:07.597Z,99.90
2018-04-23T20:15:35.389Z,99.90
2018-04-23T20:18:03.145Z,99.90
2018-04-23T20:20:30.884Z,99.90
2018-04-23T20:22:58.737Z,99.90
2018-04-23T20:25:26.464Z,99.90
2018-04-23T20:27:54.200Z,99.90
2018-04-23T20:30:22.000Z,99.90
2018-04-23T20:32:50.572Z,99.90
2018-04-23T20:35:19.092Z,99.90
2018-04-23T20:37:46.935Z,99.90
2018-04-23T20:40:14.698Z,99.90
2018-04-23T20:42:42.447Z,99.90
2018-04-23T20:45:11.000Z,99.90
2018-04-23T20:47:38.750Z,99.90
2018-04-23T20:50:06.523Z,99.90
2018-04-23T20:52:34.324Z,99.90
2018-04-23T20:55:02.817Z,99.90
2018-04-23T20:57:30.623Z,99.90
2018-04-23T20:59:58.452Z,99.90
2018-04-23T21:02:26.189Z,99.90
2018-04-23T21:04:53.976Z,99.90
2018-04-23T21:07:21.795Z,99.90
2018-04-23T21:09:49.534Z,99.90
2018-04-23T21:12:17.284Z,99.90
2018-04-23T21:14:45.080Z,99.90
2018-04-23T21:17:12.831Z,99.90
2018-04-23T21:19:40.584Z,99.90
2018-04-23T21:22:08.378Z,99.90
2018-04-23T21:24:36.887Z,99.90
2018-04-23T21:27:04.635Z,99.90
2018-04-23T21:29:32.429Z,99.90
2018-04-23T21:32:00.158Z,99.90
2018-04-23T21:34:27.893Z,99.90
2018-04-23T21:36:55.707Z,99.90
2018-04-23T21:39:23.461Z,99.90
2018-04-23T21:41:51.262Z,99.90
2018-04-23T21:44:19.062Z,99.90
2018-04-23T21:46:47.571Z,99.90
2018-04-23T21:49:15.320Z,99.90
2018-04-23T21:51:43.108Z,99.90
2018-04-23T21:54:10.859Z,99.90
2018-04-23T21:56:38.605Z,99.90
2018-04-23T21:59:06.408Z,99.90
2018-04-23T22:01:34.192Z,99.90
2018-04-23T22:04:02.726Z,99.90
2018-04-23T22:06:30.576Z,99.90
2018-04-23T22:08:58.317Z,99.90
2018-04-23T22:11:26.815Z,99.90
2018-04-23T22:13:54.600Z,99.90
2018-04-23T22:16:22.510Z,99.90
2018-04-23T22:18:50.291Z,99.90
2018-04-23T22:21:18.081Z,99.90
2018-04-23T22:23:45.815Z,99.90
2018-04-23T22:26:13.581Z,99.90
2018-04-23T22:28:41.368Z,99.90
2018-04-23T22:31:09.125Z,99.90
2018-04-23T22:33:36.856Z,99.90
2018-04-23T22:36:04.643Z,99.90
2018-04-23T22:38:32.375Z,99.90
2018-04-23T22:41:00.887Z,99.90
2018-04-23T22:43:28.693Z,99.90
2018-04-23T22:45:56.433Z,99.90
2018-04-23T22:48:24.177Z,99.90
2018-04-23T22:50:51.962Z,99.90
2018-04-23T22:53:20.477Z,99.90
2018-04-23T22:55:48.987Z,99.90
2018-04-23T22:58:16.788Z,99.90
2018-04-23T23:00:44.520Z,99.90
2018-04-23T23:03:12.273Z,99.90
2018-04-23T23:05:40.068Z,99.90
2018-04-23T23:08:07.812Z,99.90
2018-04-23T23:10:35.535Z,99.90
2018-04-23T23:13:04.131Z,99.90
2018-04-23T23:15:31.873Z,99.90
2018-04-23T23:18:00.437Z,99.90
2018-04-23T23:20:28.279Z,99.90
2018-04-23T23:22:56.034Z,99.90
2018-04-23T23:25:23.818Z,99.90
2018-04-23T23:27:51.651Z,99.90
2018-04-23T23:30:19.388Z,99.90
2018-04-23T23:32:47.180Z,99.90
2018-04-23T23:35:15.072Z,99.90
2018-04-23T23:37:42.811Z,99.90
2018-04-23T23:40:10.571Z,99.90
2018-04-23T23:42:38.359Z,99.90
2018-04-23T23:45:06.108Z,99.90
2018-04-23T23:47:33.839Z,99.90
2018-04-23T23:50:01.630Z,99.90
2018-04-23T23:52:30.358Z,99.90
2018-04-23T23:54:58.099Z,99.90
2018-04-23T23:57:26.655Z,99.90
2018-04-23T23:59:54.383Z,99.90
